createdAt,value
2022-08-22T00:01:03.597Z,6.80
2022-08-22T00:02:45.720Z,5.85
2022-08-22T00:03:04.492Z,5.55
2022-08-22T00:03:09.413Z,6.00
2022-08-22T00:03:10.471Z,7.80
2022-08-22T00:03:12.645Z,7.15
2022-08-22T00:03:49.912Z,7.50
2022-08-22T00:06:16.497Z,7.25
2022-08-22T00:08:55.658Z,7.55
2022-08-22T00:11:43.906Z,7.45
2022-08-22T00:14:17.855Z,7.53
2022-08-22T00:17:10.035Z,7.88
2022-08-22T00:20:06.550Z,6.88
2022-08-22T00:22:56.828Z,9.40
2022-08-22T00:26:01.527Z,7.00
2022-08-22T00:28:41.512Z,6.60
2022-08-22T00:31:36.737Z,6.93
2022-08-22T00:34:16.030Z,6.57
2022-08-22T00:36:52.798Z,7.00
2022-08-22T00:39:21.548Z,7.20
2022-08-22T00:41:50.967Z,8.07
2022-08-22T00:44:31.195Z,7.03
2022-08-22T00:47:34.689Z,7.38
2022-08-22T00:50:36.711Z,7.32
2022-08-22T00:53:21.836Z,8.10
2022-08-22T00:56:03.440Z,6.88
2022-08-22T00:58:56.065Z,7.03
2022-08-22T01:01:33.757Z,6.95
2022-08-22T01:04:40.659Z,6.40
2022-08-22T01:07:38.273Z,7.15
2022-08-22T01:10:23.950Z,6.82
2022-08-22T01:13:16.875Z,6.97
2022-08-22T01:15:44.780Z,6.45
2022-08-22T01:18:29.205Z,7.38
2022-08-22T01:21:02.254Z,6.53
2022-08-22T01:24:06.504Z,6.60
2022-08-22T01:26:57.607Z,10.02
2022-08-22T01:30:02.927Z,8.32
2022-08-22T01:32:35.387Z,5.90
2022-08-22T01:35:10.806Z,6.95
2022-08-22T01:37:52.439Z,6.32
2022-08-22T01:40:53.599Z,6.68
2022-08-22T01:43:59.799Z,7.55
2022-08-22T01:46:49.239Z,8.07
2022-08-22T01:49:21.705Z,7.75
2022-08-22T01:51:56.645Z,7.97
2022-08-22T01:54:45.275Z,6.70
2022-08-22T01:57:13.396Z,7.07
2022-08-22T01:59:43.115Z,7.50
2022-08-22T02:02:09.715Z,7.50
2022-08-22T02:04:36.305Z,5.80
2022-08-22T02:07:11.684Z,5.78
2022-08-22T02:10:08.937Z,7.40
2022-08-22T02:12:41.831Z,6.03
2022-08-22T02:15:29.849Z,7.18
2022-08-22T02:18:05.333Z,6.32
2022-08-22T02:20:56.203Z,8.63
2022-08-22T02:23:29.612Z,5.95
2022-08-22T02:26:02.106Z,6.05
2022-08-22T02:28:56.960Z,8.23
2022-08-22T02:31:37.283Z,5.80
2022-08-22T02:34:36.836Z,7.57
2022-08-22T02:37:48.096Z,6.97
2022-08-22T02:40:30.779Z,7.85
2022-08-22T02:43:12.859Z,7.07
2022-08-22T02:46:03.520Z,8.23
2022-08-22T02:48:48.135Z,6.85
2022-08-22T02:51:36.052Z,7.40
2022-08-22T02:54:26.341Z,6.85
2022-08-22T02:57:05.881Z,7.35
2022-08-22T02:59:59.251Z,7.18
2022-08-22T03:02:31.612Z,6.40
2022-08-22T03:05:23.263Z,6.20
2022-08-22T03:08:05.006Z,7.80
2022-08-22T03:10:41.027Z,6.88
2022-08-22T03:13:12.151Z,6.55
2022-08-22T03:15:49.424Z,5.82
2022-08-22T03:18:19.662Z,5.78
2022-08-22T03:21:11.104Z,6.20
2022-08-22T03:23:49.224Z,5.78
2022-08-22T03:26:25.647Z,6.40
2022-08-22T03:29:00.388Z,6.38
2022-08-22T03:31:29.133Z,6.45
2022-08-22T03:34:14.285Z,5.55
2022-08-22T03:36:48.398Z,5.97
2022-08-22T03:39:37.828Z,6.90
2022-08-22T03:42:16.440Z,6.35
2022-08-22T03:44:48.933Z,7.05
2022-08-22T03:47:34.196Z,7.25
2022-08-22T03:50:31.511Z,6.93
2022-08-22T03:53:23.208Z,7.82
2022-08-22T03:56:15.379Z,8.07
2022-08-22T03:59:15.802Z,7.40
2022-08-22T04:02:29.449Z,7.85
2022-08-22T04:05:28.678Z,8.30
2022-08-22T04:08:43.935Z,6.53
2022-08-22T04:11:41.901Z,7.93
2022-08-22T04:14:24.319Z,6.72
2022-08-22T04:17:00.132Z,6.95
2022-08-22T04:19:38.780Z,6.82
2022-08-22T04:22:35.976Z,8.27
2022-08-22T04:25:31.462Z,7.13
2022-08-22T04:28:10.304Z,6.90
2022-08-22T04:30:46.604Z,10.07
2022-08-22T04:33:23.550Z,9.57
2022-08-22T04:36:13.489Z,8.50
2022-08-22T04:38:43.725Z,8.38
2022-08-22T04:41:30.350Z,7.47
2022-08-22T04:44:02.213Z,7.40
2022-08-22T04:46:46.629Z,9.35
2022-08-22T04:49:34.746Z,8.25
2022-08-22T04:52:07.442Z,9.07
2022-08-22T04:54:57.124Z,9.25
2022-08-22T04:58:02.086Z,9.55
2022-08-22T05:01:00.226Z,8.55
2022-08-22T05:05:59.701Z,8.73
2022-08-22T05:08:32.219Z,7.35
2022-08-22T05:11:02.487Z,7.70
2022-08-22T05:13:43.210Z,8.73
2022-08-22T05:16:19.119Z,8.63
2022-08-22T05:18:54.649Z,8.95
2022-08-22T05:21:27.449Z,7.93
2022-08-22T05:24:11.905Z,7.63
2022-08-22T05:26:42.987Z,7.70
2022-08-22T05:29:13.573Z,7.63
2022-08-22T05:31:56.258Z,8.27
2022-08-22T05:34:26.154Z,8.15
2022-08-22T05:37:01.959Z,7.75
2022-08-22T05:39:30.063Z,8.82
2022-08-22T05:42:00.396Z,8.13
2022-08-22T05:44:32.238Z,9.27
2022-08-22T05:47:06.024Z,11.85
2022-08-22T05:49:53.837Z,9.07
2022-08-22T05:52:59.375Z,8.18
2022-08-22T05:55:36.820Z,7.82
2022-08-22T05:58:24.987Z,8.00
2022-08-22T06:01:05.047Z,7.43
2022-08-22T06:03:41.679Z,7.65
2022-08-22T06:06:16.533Z,7.43
2022-08-22T06:09:01.629Z,7.88
2022-08-22T06:11:58.176Z,7.38
2022-08-22T06:14:38.685Z,7.68
2022-08-22T06:17:20.551Z,7.82
2022-08-22T06:19:50.775Z,7.82
2022-08-22T06:22:24.748Z,6.85
2022-08-22T06:24:54.083Z,9.85
2022-08-22T06:27:26.367Z,8.35
2022-08-22T06:30:03.114Z,7.63
2022-08-22T06:32:58.460Z,8.40
2022-08-22T06:35:59.352Z,8.50
2022-08-22T06:38:34.864Z,8.65
2022-08-22T06:41:06.877Z,7.53
2022-08-22T06:43:39.425Z,6.72
2022-08-22T06:46:07.543Z,6.75
2022-08-22T06:48:36.200Z,6.28
2022-08-22T06:51:06.486Z,7.55
2022-08-22T06:53:35.777Z,6.90
2022-08-22T06:56:06.000Z,7.22
2022-08-22T06:58:42.080Z,6.15
2022-08-22T07:01:50.285Z,6.75
2022-08-22T07:04:17.957Z,5.60
2022-08-22T07:06:50.233Z,7.18
2022-08-22T07:09:22.318Z,6.22
2022-08-22T07:11:49.655Z,7.00
2022-08-22T07:14:24.792Z,6.93
2022-08-22T07:17:01.047Z,6.82
2022-08-22T07:19:33.320Z,6.18
2022-08-22T07:22:14.232Z,6.25
2022-08-22T07:24:47.567Z,5.88
2022-08-22T07:27:29.351Z,5.63
2022-08-22T07:30:10.131Z,10.38
2022-08-22T07:32:46.501Z,6.55
2022-08-22T07:35:18.562Z,5.35
2022-08-22T07:38:00.735Z,5.83
2022-08-22T07:41:00.690Z,4.07
2022-08-22T07:43:32.859Z,6.72
2022-08-22T07:46:14.541Z,13.03
2022-08-22T07:49:08.109Z,10.07
2022-08-22T07:51:48.180Z,6.57
2022-08-22T07:54:22.423Z,4.60
2022-08-22T07:57:01.797Z,5.38
2022-08-22T07:59:29.748Z,5.78
2022-08-22T08:01:59.858Z,7.28
2022-08-22T08:04:36.886Z,5.53
2022-08-22T08:07:09.143Z,7.07
2022-08-22T08:09:41.289Z,5.18
2022-08-22T08:12:11.656Z,6.70
2022-08-22T08:14:49.539Z,5.60
2022-08-22T08:20:17.884Z,5.35
2022-08-22T08:22:46.223Z,5.15
2022-08-22T08:25:17.595Z,5.15
2022-08-22T08:28:03.929Z,6.50
2022-08-22T08:30:56.164Z,7.00
2022-08-22T08:33:28.242Z,4.57
2022-08-22T08:36:20.099Z,6.97
2022-08-22T08:38:53.421Z,6.25
2022-08-22T08:41:41.022Z,6.47
2022-08-22T08:44:35.798Z,5.55
2022-08-22T08:47:15.279Z,6.57
2022-08-22T08:49:57.223Z,6.03
2022-08-22T08:52:42.616Z,4.18
2022-08-22T08:55:27.651Z,6.15
2022-08-22T08:58:12.844Z,6.32
2022-08-22T09:00:54.864Z,6.68
2022-08-22T09:03:35.771Z,5.85
2022-08-22T09:06:28.794Z,6.72
2022-08-22T09:09:14.203Z,4.45
2022-08-22T09:12:08.582Z,4.38
2022-08-22T09:15:01.513Z,4.03
2022-08-22T09:17:51.879Z,3.90
2022-08-22T09:20:47.569Z,3.73
2022-08-22T09:23:53.371Z,6.10
2022-08-22T09:26:35.915Z,5.03
2022-08-22T09:29:28.989Z,6.22
2022-08-22T09:32:13.152Z,4.75
2022-08-22T09:35:01.968Z,5.07
2022-08-22T09:37:37.434Z,5.40
2022-08-22T09:40:20.423Z,5.25
2022-08-22T09:43:28.590Z,4.75
2022-08-22T09:46:19.021Z,3.63
2022-08-22T09:49:07.846Z,3.90
2022-08-22T09:51:56.030Z,4.43
2022-08-22T09:54:58.057Z,4.70
2022-08-22T09:58:03.010Z,4.45
2022-08-22T10:00:47.440Z,5.32
2022-08-22T10:04:09.644Z,5.40
2022-08-22T10:06:46.326Z,5.63
2022-08-22T10:09:31.447Z,5.22
2022-08-22T10:12:12.432Z,3.83
2022-08-22T10:14:58.350Z,5.78
2022-08-22T10:17:40.949Z,3.35
2022-08-22T10:23:08.869Z,4.03
2022-08-22T10:26:22.847Z,4.75
2022-08-22T10:29:01.191Z,3.97
2022-08-22T10:31:58.373Z,7.30
2022-08-22T10:34:36.221Z,4.60
2022-08-22T10:37:12.026Z,4.97
2022-08-22T10:39:44.198Z,6.10
2022-08-22T10:42:28.463Z,4.43
2022-08-22T10:45:23.703Z,3.88
2022-08-22T10:48:08.817Z,4.32
2022-08-22T10:51:12.512Z,5.03
2022-08-22T10:53:57.935Z,3.83
2022-08-22T10:56:48.068Z,5.75
2022-08-22T10:59:33.567Z,5.22
2022-08-22T11:02:10.231Z,4.32
2022-08-22T11:04:51.808Z,4.90
2022-08-22T11:07:41.956Z,5.13
2022-08-22T11:10:21.748Z,6.00
2022-08-22T11:13:17.493Z,3.83
2022-08-22T11:16:16.296Z,4.68
2022-08-22T11:18:42.899Z,3.70
2022-08-22T11:22:03.641Z,4.28
2022-08-22T11:24:58.041Z,4.68
2022-08-22T11:27:38.400Z,3.83
2022-08-22T11:30:09.541Z,4.15
2022-08-22T11:32:44.978Z,6.00
2022-08-22T11:35:21.890Z,4.03
2022-08-22T11:37:51.343Z,3.25
2022-08-22T11:40:23.395Z,6.13
2022-08-22T11:43:18.164Z,4.05
2022-08-22T11:45:49.461Z,4.32
2022-08-22T11:48:25.096Z,4.00
2022-08-22T11:51:13.726Z,4.15
2022-08-22T11:54:10.347Z,3.53
2022-08-22T11:56:50.029Z,4.40
2022-08-22T11:59:43.123Z,5.00
2022-08-22T12:02:19.536Z,5.15
2022-08-22T12:05:03.906Z,2.70
2022-08-22T12:07:37.646Z,3.63
2022-08-22T12:10:17.801Z,4.65
2022-08-22T12:13:04.561Z,3.45
2022-08-22T12:15:53.873Z,4.88
2022-08-22T12:18:45.048Z,5.13
2022-08-22T12:21:32.972Z,4.03
2022-08-22T12:24:19.278Z,6.18
2022-08-22T12:26:57.548Z,5.43
2022-08-22T12:29:51.298Z,4.15
2022-08-22T12:32:55.144Z,4.57
2022-08-22T12:35:50.691Z,5.68
2022-08-22T12:38:30.687Z,5.30
2022-08-22T12:41:10.863Z,5.70
2022-08-22T12:43:57.095Z,4.90
2022-08-22T12:46:47.384Z,4.93
2022-08-22T12:49:27.201Z,7.80
2022-08-22T12:52:17.043Z,5.10
2022-08-22T12:54:57.411Z,6.75
2022-08-22T12:57:29.734Z,4.57
2022-08-22T13:00:05.593Z,4.90
2022-08-22T13:02:36.042Z,6.55
2022-08-22T13:05:19.513Z,4.50
2022-08-22T13:07:54.536Z,4.05
2022-08-22T13:10:27.119Z,5.70
2022-08-22T13:12:56.431Z,4.70
2022-08-22T13:15:36.050Z,4.53
2022-08-22T13:18:29.190Z,4.60
2022-08-22T13:20:58.325Z,8.25
2022-08-22T13:23:32.659Z,5.65
2022-08-22T13:26:03.636Z,4.15
2022-08-22T13:28:42.057Z,6.18
2022-08-22T13:31:17.735Z,4.13
2022-08-22T13:33:48.034Z,5.40
2022-08-22T13:36:20.062Z,5.28
2022-08-22T13:39:12.090Z,5.82
2022-08-22T13:41:51.439Z,4.35
2022-08-22T13:44:21.269Z,3.95
2022-08-22T13:47:13.201Z,4.95
2022-08-22T13:49:42.196Z,5.95
2022-08-22T13:52:52.303Z,4.75
2022-08-22T13:55:30.125Z,4.70
2022-08-22T13:58:42.995Z,3.88
2022-08-22T14:01:28.420Z,6.30
2022-08-22T14:04:21.865Z,5.00
2022-08-22T14:07:03.387Z,4.15
2022-08-22T14:10:14.882Z,6.57
2022-08-22T14:12:50.191Z,4.70
2022-08-22T14:15:26.765Z,5.53
2022-08-22T14:18:09.600Z,5.25
2022-08-22T14:20:39.467Z,4.57
2022-08-22T14:23:09.247Z,5.93
2022-08-22T14:25:39.186Z,5.43
2022-08-22T14:28:30.711Z,5.57
2022-08-22T14:31:04.181Z,6.50
2022-08-22T14:33:36.599Z,5.18
2022-08-22T14:36:27.071Z,5.10
2022-08-22T14:39:01.966Z,5.18
2022-08-22T14:41:52.448Z,6.90
2022-08-22T14:44:33.452Z,4.95
2022-08-22T14:47:04.921Z,4.00
2022-08-22T14:49:56.301Z,4.35
2022-08-22T14:52:33.800Z,5.00
2022-08-22T14:55:30.650Z,5.22
2022-08-22T14:58:03.419Z,4.40
2022-08-22T15:00:38.348Z,6.55
2022-08-22T15:03:33.400Z,4.63
2022-08-22T15:06:04.567Z,5.07
2022-08-22T15:08:36.099Z,4.07
2022-08-22T15:11:36.601Z,4.53
2022-08-22T15:14:27.186Z,5.30
2022-08-22T15:16:57.832Z,5.30
2022-08-22T15:19:34.708Z,5.22
2022-08-22T15:22:25.765Z,5.13
2022-08-22T15:25:12.335Z,5.30
2022-08-22T15:27:48.788Z,6.05
2022-08-22T15:30:20.362Z,6.47
2022-08-22T15:32:49.195Z,5.68
2022-08-22T15:35:30.069Z,4.63
2022-08-22T15:38:06.943Z,3.92
2022-08-22T15:40:45.740Z,7.22
2022-08-22T15:43:35.542Z,3.22
2022-08-22T15:46:23.110Z,3.58
2022-08-22T15:48:56.035Z,3.88
2022-08-22T15:52:12.411Z,5.10
2022-08-22T15:55:06.920Z,4.10
2022-08-22T15:57:42.415Z,4.65
2022-08-22T16:00:33.052Z,3.85
2022-08-22T16:03:09.178Z,3.53
2022-08-22T16:05:55.573Z,3.53
2022-08-22T16:08:33.084Z,3.67
2022-08-22T16:11:02.952Z,4.63
2022-08-22T16:13:29.867Z,4.10
2022-08-22T16:15:57.095Z,3.78
2022-08-22T16:18:43.270Z,4.57
2022-08-22T16:21:15.261Z,4.82
2022-08-22T16:23:51.296Z,5.93
2022-08-22T16:26:31.565Z,3.80
2022-08-22T16:29:06.952Z,5.20
2022-08-22T16:31:39.655Z,4.45
2022-08-22T16:34:18.419Z,9.05
2022-08-22T16:37:03.374Z,4.07
2022-08-22T16:39:36.421Z,4.63
2022-08-22T16:44:48.913Z,4.22
2022-08-22T16:47:30.350Z,4.95
2022-08-22T16:50:15.479Z,5.25
2022-08-22T16:53:05.168Z,4.55
2022-08-22T16:55:32.579Z,4.43
2022-08-22T16:58:40.030Z,4.00
2022-08-22T17:01:30.151Z,4.75
2022-08-22T17:04:13.281Z,4.80
2022-08-22T17:06:42.726Z,3.47
2022-08-22T17:09:27.868Z,6.10
2022-08-22T17:12:18.587Z,4.68
2022-08-22T17:15:36.928Z,5.95
2022-08-22T17:18:18.659Z,6.93
2022-08-22T17:21:30.194Z,6.60
2022-08-22T17:24:06.798Z,5.93
2022-08-22T17:27:02.059Z,5.03
2022-08-22T17:29:43.013Z,5.15
2022-08-22T17:32:24.282Z,5.43
2022-08-22T17:35:02.627Z,6.03
2022-08-22T17:38:01.021Z,4.72
2022-08-22T17:40:41.754Z,4.90
2022-08-22T17:43:33.508Z,4.65
2022-08-22T17:46:44.098Z,6.03
2022-08-22T17:49:25.675Z,5.25
2022-08-22T17:52:07.728Z,5.78
2022-08-22T17:54:52.781Z,4.93
2022-08-22T17:57:30.930Z,4.35
2022-08-22T18:00:17.975Z,3.72
2022-08-22T18:03:01.319Z,3.65
2022-08-22T18:06:14.664Z,4.35
2022-08-22T18:11:58.435Z,5.63
2022-08-22T18:14:40.556Z,5.25
2022-08-22T18:18:02.605Z,4.57
2022-08-22T18:20:37.799Z,5.03
2022-08-22T18:23:28.447Z,4.70
2022-08-22T18:26:15.681Z,3.97
2022-08-22T18:29:14.673Z,10.30
2022-08-22T18:32:08.775Z,7.40
2022-08-22T18:34:54.844Z,5.93
2022-08-22T18:37:31.555Z,3.90
2022-08-22T18:40:06.320Z,4.32
2022-08-22T18:42:41.803Z,4.95
2022-08-22T18:45:15.242Z,4.05
2022-08-22T18:47:42.054Z,3.55
2022-08-22T18:50:34.507Z,4.47
2022-08-22T18:53:01.884Z,5.60
2022-08-22T18:55:49.521Z,5.18
2022-08-22T18:59:06.155Z,5.32
2022-08-22T19:01:45.047Z,4.93
2022-08-22T19:04:20.543Z,5.65
2022-08-22T19:07:25.948Z,4.20
2022-08-22T19:10:14.758Z,5.78
2022-08-22T19:13:10.865Z,3.88
2022-08-22T19:15:56.001Z,5.15
2022-08-22T19:18:25.367Z,4.93
2022-08-22T19:21:32.188Z,4.03
2022-08-22T19:23:59.908Z,5.88
2022-08-22T19:26:29.434Z,4.45
2022-08-22T19:29:26.731Z,6.03
2022-08-22T19:32:00.337Z,5.20
2022-08-22T19:34:30.085Z,3.55
2022-08-22T19:37:30.674Z,4.55
2022-08-22T19:40:01.120Z,4.47
2022-08-22T19:42:34.741Z,3.85
2022-08-22T19:45:28.960Z,4.05
2022-08-22T19:48:00.293Z,6.95
2022-08-22T19:50:36.193Z,8.02
2022-08-22T19:53:39.846Z,7.65
2022-08-22T19:56:31.056Z,5.80
2022-08-22T19:59:20.133Z,6.60
2022-08-22T20:01:49.681Z,4.75
2022-08-22T20:04:42.804Z,4.93
2022-08-22T20:07:31.219Z,6.35
2022-08-22T20:10:28.150Z,7.05
2022-08-22T20:13:04.294Z,5.07
2022-08-22T20:15:34.140Z,5.75
2022-08-22T20:21:00.376Z,4.78
2022-08-22T20:23:30.890Z,5.72
2022-08-22T20:25:58.856Z,5.28
2022-08-22T20:28:45.072Z,6.00
2022-08-22T20:31:20.968Z,6.97
2022-08-22T20:33:56.679Z,6.13
2022-08-22T20:36:28.549Z,6.30
2022-08-22T20:39:04.985Z,6.45
2022-08-22T20:41:39.644Z,4.50
2022-08-22T20:44:29.780Z,4.65
2022-08-22T20:47:04.320Z,4.15
2022-08-22T20:49:45.977Z,5.18
2022-08-22T20:52:30.692Z,6.75
2022-08-22T20:55:13.624Z,5.40
2022-08-22T20:57:55.941Z,5.50
2022-08-22T21:00:30.639Z,4.60
2022-08-22T21:03:07.742Z,5.05
2022-08-22T21:05:40.427Z,4.53
2022-08-22T21:08:09.157Z,4.68
2022-08-22T21:10:57.017Z,4.47
2022-08-22T21:13:32.489Z,6.70
2022-08-22T21:16:05.169Z,5.30
2022-08-22T21:18:34.891Z,4.60
2022-08-22T21:21:17.128Z,4.97
2022-08-22T21:24:06.329Z,4.00
2022-08-22T21:26:38.571Z,5.78
2022-08-22T21:29:18.327Z,5.17
2022-08-22T21:32:04.540Z,6.70
2022-08-22T21:34:52.163Z,5.32
2022-08-22T21:37:38.293Z,4.50
2022-08-22T21:40:18.085Z,4.85
2022-08-22T21:43:00.838Z,4.35
2022-08-22T21:45:35.735Z,4.88
2022-08-22T21:48:02.735Z,4.63
2022-08-22T21:50:38.458Z,5.32
2022-08-22T21:53:10.282Z,6.45
2022-08-22T21:55:47.107Z,7.35
2022-08-22T21:58:35.649Z,6.18
2022-08-22T22:01:27.881Z,6.97
2022-08-22T22:03:55.429Z,7.93
2022-08-22T22:06:22.087Z,7.45
2022-08-22T22:08:49.103Z,5.60
2022-08-22T22:11:16.501Z,6.30
2022-08-22T22:13:43.554Z,5.90
2022-08-22T22:16:14.744Z,5.75
2022-08-22T22:18:41.476Z,7.10
2022-08-22T22:21:08.942Z,8.15
2022-08-22T22:23:35.628Z,5.70
2022-08-22T22:26:04.838Z,5.60
2022-08-22T22:28:36.122Z,7.85
2022-08-22T22:31:03.651Z,5.38
2022-08-22T22:33:33.511Z,6.60
2022-08-22T22:36:16.097Z,6.57
2022-08-22T22:38:42.901Z,6.20
2022-08-22T22:41:11.251Z,6.18
2022-08-22T22:43:37.913Z,6.60
2022-08-22T22:46:04.882Z,6.80
2022-08-22T22:48:32.131Z,7.25
2022-08-22T22:50:58.847Z,7.57
2022-08-22T22:53:37.954Z,6.50
2022-08-22T22:56:09.666Z,8.02
2022-08-22T22:58:37.691Z,6.53
2022-08-22T23:01:10.226Z,6.10
2022-08-22T23:03:37.070Z,6.78
2022-08-22T23:06:03.891Z,7.00
2022-08-22T23:08:30.684Z,6.32
2022-08-22T23:10:57.515Z,5.55
2022-08-22T23:13:24.210Z,5.32
2022-08-22T23:15:50.849Z,6.28
2022-08-22T23:18:17.575Z,5.80
2022-08-22T23:20:47.535Z,6.20
2022-08-22T23:23:14.193Z,6.80
2022-08-22T23:25:40.835Z,5.65
2022-08-22T23:28:07.533Z,5.97
2022-08-22T23:30:34.183Z,5.93
2022-08-22T23:33:01.122Z,5.88
2022-08-22T23:35:27.880Z,5.43
2022-08-22T23:37:54.519Z,6.05
2022-08-22T23:40:21.260Z,5.53
2022-08-22T23:42:48.047Z,5.95
2022-08-22T23:45:14.745Z,5.70
2022-08-22T23:47:41.400Z,4.43
2022-08-22T23:50:08.526Z,5.05
2022-08-22T23:52:35.295Z,6.82
2022-08-22T23:55:01.928Z,5.72
2022-08-22T23:57:29.458Z,6.78
2022-08-22T23:59:57.750Z,4.90
